sensor_id;sensor_type;location;lat;lon;timestamp;temperature;humidity
26503;DHT22;14177;51.520;6.764;2022-10-18T04:42:40;15.70;99.90
26503;DHT22;14177;51.520;6.764;2022-10-18T04:45:13;15.70;99.90
26503;DHT22;14177;51.520;6.764;2022-10-18T04:47:41;15.70;99.90
26503;DHT22;14177;51.520;6.764;2022-10-18T04:50:39;15.70;99.90
26503;DHT22;14177;51.520;6.764;2022-10-18T04:53:16;15.70;99.90
26503;DHT22;14177;51.520;6.764;2022-10-18T04:55:45;15.70;99.90
26503;DHT22;14177;51.520;6.764;2022-10-18T04:58:16;15.70;99.90
26503;DHT22;14177;51.520;6.764;2022-10-18T05:00:49;15.80;99.90
26503;DHT22;14177;51.520;6.764;2022-10-18T05:03:23;15.70;99.90
26503;DHT22;14177;51.520;6.764;2022-10-18T05:06:11;15.70;99.90
26503;DHT22;14177;51.520;6.764;2022-10-18T05:08:39;15.80;99.90
26503;DHT22;14177;51.520;6.764;2022-10-18T05:11:07;15.80;99.90
26503;DHT22;14177;51.520;6.764;2022-10-18T05:14:03;15.70;99.90
26503;DHT22;14177;51.520;6.764;2022-10-18T05:16:41;15.80;99.90
26503;DHT22;14177;51.520;6.764;2022-10-18T05:19:09;15.80;99.90
26503;DHT22;14177;51.520;6.764;2022-10-18T05:22:08;15.80;99.90
26503;DHT22;14177;51.520;6.764;2022-10-18T05:24:57;15.80;99.90
26503;DHT22;14177;51.520;6.764;2022-10-18T05:27:27;15.70;99.90
26503;DHT22;14177;51.520;6.764;2022-10-18T05:29:56;15.70;99.90
26503;DHT22;14177;51.520;6.764;2022-10-18T05:32:31;15.70;99.90
26503;DHT22;14177;51.520;6.764;2022-10-18T05:34:59;15.70;99.90
26503;DHT22;14177;51.520;6.764;2022-10-18T05:37:26;15.70;99.90
26503;DHT22;14177;51.520;6.764;2022-10-18T05:39:54;15.80;99.90
26503;DHT22;14177;51.520;6.764;2022-10-18T05:42:25;15.80;99.90
26503;DHT22;14177;51.520;6.764;2022-10-18T05:44:52;15.70;99.90
26503;DHT22;14177;51.520;6.764;2022-10-18T05:47:19;15.80;99.90
26503;DHT22;14177;51.520;6.764;2022-10-18T05:49:46;15.70;99.90
26503;DHT22;14177;51.520;6.764;2022-10-18T05:52:13;15.70;99.90
26503;DHT22;14177;51.520;6.764;2022-10-18T05:54:44;15.80;99.90
26503;DHT22;14177;51.520;6.764;2022-10-18T05:57:24;15.80;99.90
26503;DHT22;14177;51.520;6.764;2022-10-18T05:59:52;15.80;99.90
26503;DHT22;14177;51.520;6.764;2022-10-18T06:02:19;15.70;99.90
26503;DHT22;14177;51.520;6.764;2022-10-18T06:04:46;15.80;99.90
26503;DHT22;14177;51.520;6.764;2022-10-18T06:07:13;15.70;99.90
26503;DHT22;14177;51.520;6.764;2022-10-18T06:09:40;15.70;99.90
26503;DHT22;14177;51.520;6.764;2022-10-18T06:12:07;15.70;99.90
26503;DHT22;14177;51.520;6.764;2022-10-18T06:14:35;15.80;99.90
26503;DHT22;14177;51.520;6.764;2022-10-18T06:17:03;15.70;99.90
26503;DHT22;14177;51.520;6.764;2022-10-18T06:19:34;15.70;99.90
26503;DHT22;14177;51.520;6.764;2022-10-18T06:22:01;15.70;99.90
26503;DHT22;14177;51.520;6.764;2022-10-18T06:24:28;15.70;99.90
26503;DHT22;14177;51.520;6.764;2022-10-18T06:26:56;15.70;99.90
26503;DHT22;14177;51.520;6.764;2022-10-18T06:29:29;15.70;99.90
26503;DHT22;14177;51.520;6.764;2022-10-18T06:31:56;15.70;99.90
26503;DHT22;14177;51.520;6.764;2022-10-18T06:34:23;15.80;99.90
26503;DHT22;14177;51.520;6.764;2022-10-18T06:36:50;15.70;99.90
26503;DHT22;14177;51.520;6.764;2022-10-18T06:39:24;15.70;99.90
26503;DHT22;14177;51.520;6.764;2022-10-18T06:41:51;15.80;99.90
26503;DHT22;14177;51.520;6.764;2022-10-18T06:44:21;15.70;99.90
26503;DHT22;14177;51.520;6.764;2022-10-18T06:46:48;15.80;99.90
26503;DHT22;14177;51.520;6.764;2022-10-18T06:49:15;15.80;99.90
26503;DHT22;14177;51.520;6.764;2022-10-18T06:51:45;15.70;99.90
26503;DHT22;14177;51.520;6.764;2022-10-18T06:54:12;15.70;99.90
26503;DHT22;14177;51.520;6.764;2022-10-18T06:56:44;15.70;99.90
26503;DHT22;14177;51.520;6.764;2022-10-18T06:59:11;15.80;99.90
26503;DHT22;14177;51.520;6.764;2022-10-18T07:01:38;15.80;99.90
26503;DHT22;14177;51.520;6.764;2022-10-18T07:04:05;15.80;99.90
26503;DHT22;14177;51.520;6.764;2022-10-18T07:06:32;15.80;99.90
26503;DHT22;14177;51.520;6.764;2022-10-18T07:08:59;15.80;99.90
26503;DHT22;14177;51.520;6.764;2022-10-18T07:11:28;15.90;99.90
26503;DHT22;14177;51.520;6.764;2022-10-18T07:14:20;15.90;99.90
26503;DHT22;14177;51.520;6.764;2022-10-18T07:16:58;15.90;99.90
26503;DHT22;14177;51.520;6.764;2022-10-18T07:19:25;15.90;99.90
26503;DHT22;14177;51.520;6.764;2022-10-18T07:21:52;16.00;99.90
26503;DHT22;14177;51.520;6.764;2022-10-18T07:24:19;16.00;99.90
26503;DHT22;14177;51.520;6.764;2022-10-18T07:26:46;16.00;99.90
26503;DHT22;14177;51.520;6.764;2022-10-18T07:29:13;16.00;99.90
26503;DHT22;14177;51.520;6.764;2022-10-18T07:31:40;16.00;99.90
26503;DHT22;14177;51.520;6.764;2022-10-18T07:34:11;16.10;99.90
26503;DHT22;14177;51.520;6.764;2022-10-18T07:36:39;16.10;99.90
26503;DHT22;14177;51.520;6.764;2022-10-18T07:39:34;16.20;99.90
26503;DHT22;14177;51.520;6.764;2022-10-18T07:42:21;16.10;99.90
26503;DHT22;14177;51.520;6.764;2022-10-18T07:44:49;16.20;99.90
26503;DHT22;14177;51.520;6.764;2022-10-18T07:47:16;16.20;99.90
26503;DHT22;14177;51.520;6.764;2022-10-18T07:49:43;16.10;99.90
26503;DHT22;14177;51.520;6.764;2022-10-18T07:52:11;16.10;99.90
26503;DHT22;14177;51.520;6.764;2022-10-18T07:54:38;16.10;99.90
26503;DHT22;14177;51.520;6.764;2022-10-18T07:57:05;16.10;99.90
26503;DHT22;14177;51.520;6.764;2022-10-18T07:59:32;16.10;99.90
26503;DHT22;14177;51.520;6.764;2022-10-18T08:01:59;16.10;99.90
26503;DHT22;14177;51.520;6.764;2022-10-18T08:04:27;16.10;99.90
26503;DHT22;14177;51.520;6.764;2022-10-18T08:06:54;16.10;99.90
26503;DHT22;14177;51.520;6.764;2022-10-18T08:09:49;16.10;99.90
26503;DHT22;14177;51.520;6.764;2022-10-18T08:17:02;16.10;99.90
26503;DHT22;14177;51.520;6.764;2022-10-18T08:19:29;16.10;99.90
26503;DHT22;14177;51.520;6.764;2022-10-18T08:21:56;16.10;99.90
26503;DHT22;14177;51.520;6.764;2022-10-18T08:24:23;16.10;99.90
26503;DHT22;14177;51.520;6.764;2022-10-18T08:26:50;16.10;99.90
26503;DHT22;14177;51.520;6.764;2022-10-18T08:29:17;16.20;99.90
26503;DHT22;14177;51.520;6.764;2022-10-18T08:31:50;16.30;99.90
26503;DHT22;14177;51.520;6.764;2022-10-18T08:34:17;16.40;99.90
26503;DHT22;14177;51.520;6.764;2022-10-18T08:36:45;16.40;99.90
26503;DHT22;14177;51.520;6.764;2022-10-18T08:39:12;16.40;99.90
26503;DHT22;14177;51.520;6.764;2022-10-18T08:42:07;16.40;99.90
26503;DHT22;14177;51.520;6.764;2022-10-18T08:44:49;16.50;99.90
26503;DHT22;14177;51.520;6.764;2022-10-18T08:47:20;16.50;99.90
26503;DHT22;14177;51.520;6.764;2022-10-18T08:49:56;16.50;99.90
26503;DHT22;14177;51.520;6.764;2022-10-18T08:52:44;16.50;99.90
26503;DHT22;14177;51.520;6.764;2022-10-18T08:57:46;16.50;99.90
26503;DHT22;14177;51.520;6.764;2022-10-18T09:00:19;16.60;99.90
26503;DHT22;14177;51.520;6.764;2022-10-18T09:12:23;16.60;99.90
26503;DHT22;14177;51.520;6.764;2022-10-18T09:18:12;16.60;99.90
26503;DHT22;14177;51.520;6.764;2022-10-18T09:20:57;16.60;99.90
26503;DHT22;14177;51.520;6.764;2022-10-18T09:23:46;16.60;99.90
26503;DHT22;14177;51.520;6.764;2022-10-18T09:26:23;16.70;99.90
26503;DHT22;14177;51.520;6.764;2022-10-18T09:35:23;17.00;99.90
26503;DHT22;14177;51.520;6.764;2022-10-18T09:38:02;17.20;99.90
26503;DHT22;14177;51.520;6.764;2022-10-18T09:40:37;17.60;99.90
26503;DHT22;14177;51.520;6.764;2022-10-18T09:43:20;18.00;99.90
26503;DHT22;14177;51.520;6.764;2022-10-18T09:46:19;18.40;99.90
26503;DHT22;14177;51.520;6.764;2022-10-18T09:48:54;18.80;99.90
26503;DHT22;14177;51.520;6.764;2022-10-18T09:51:33;19.00;99.90
26503;DHT22;14177;51.520;6.764;2022-10-18T09:54:14;19.10;99.30
26503;DHT22;14177;51.520;6.764;2022-10-18T09:56:59;19.00;99.10
26503;DHT22;14177;51.520;6.764;2022-10-18T09:59:45;19.00;98.70
26503;DHT22;14177;51.520;6.764;2022-10-18T10:02:19;18.80;98.40
26503;DHT22;14177;51.520;6.764;2022-10-18T10:04:49;18.70;98.60
26503;DHT22;14177;51.520;6.764;2022-10-18T10:07:32;18.60;98.90
26503;DHT22;14177;51.520;6.764;2022-10-18T10:10:21;18.50;99.00
26503;DHT22;14177;51.520;6.764;2022-10-18T10:22:35;20.40;98.00
26503;DHT22;14177;51.520;6.764;2022-10-18T10:25:18;21.10;94.70
26503;DHT22;14177;51.520;6.764;2022-10-18T10:27:52;21.60;93.90
26503;DHT22;14177;51.520;6.764;2022-10-18T10:30:28;21.70;92.10
26503;DHT22;14177;51.520;6.764;2022-10-18T10:32:58;21.60;92.20
26503;DHT22;14177;51.520;6.764;2022-10-18T10:35:31;22.00;92.70
26503;DHT22;14177;51.520;6.764;2022-10-18T10:38:24;22.50;91.90
26503;DHT22;14177;51.520;6.764;2022-10-18T10:40:57;23.00;90.50
26503;DHT22;14177;51.520;6.764;2022-10-18T10:43:35;23.10;88.90
26503;DHT22;14177;51.520;6.764;2022-10-18T11:00:52;23.30;85.80
26503;DHT22;14177;51.520;6.764;2022-10-18T11:03:21;23.60;84.10
26503;DHT22;14177;51.520;6.764;2022-10-18T11:05:57;23.90;83.80
26503;DHT22;14177;51.520;6.764;2022-10-18T11:08:36;24.10;81.80
26503;DHT22;14177;51.520;6.764;2022-10-18T11:11:21;24.30;79.80
26503;DHT22;14177;51.520;6.764;2022-10-18T11:17:05;25.00;76.50
26503;DHT22;14177;51.520;6.764;2022-10-18T11:23:03;25.70;73.70
26503;DHT22;14177;51.520;6.764;2022-10-18T11:29:42;25.10;74.00
26503;DHT22;14177;51.520;6.764;2022-10-18T11:33:00;25.20;74.80
26503;DHT22;14177;51.520;6.764;2022-10-18T11:36:11;25.30;73.80
26503;DHT22;14177;51.520;6.764;2022-10-18T11:39:02;25.60;73.90
26503;DHT22;14177;51.520;6.764;2022-10-18T11:41:37;25.70;73.50
26503;DHT22;14177;51.520;6.764;2022-10-18T11:44:32;25.30;76.10
26503;DHT22;14177;51.520;6.764;2022-10-18T11:50:42;24.60;77.50
26503;DHT22;14177;51.520;6.764;2022-10-18T11:53:25;24.60;76.10
26503;DHT22;14177;51.520;6.764;2022-10-18T12:05:17;24.80;73.80
26503;DHT22;14177;51.520;6.764;2022-10-18T12:10:51;24.90;75.50
26503;DHT22;14177;51.520;6.764;2022-10-18T12:14:14;25.30;74.50
26503;DHT22;14177;51.520;6.764;2022-10-18T12:17:10;25.70;72.10
26503;DHT22;14177;51.520;6.764;2022-10-18T12:20:13;25.90;72.60
26503;DHT22;14177;51.520;6.764;2022-10-18T12:23:08;26.10;69.90
26503;DHT22;14177;51.520;6.764;2022-10-18T12:26:03;26.30;68.10
26503;DHT22;14177;51.520;6.764;2022-10-18T12:31:47;26.10;67.90
26503;DHT22;14177;51.520;6.764;2022-10-18T12:40:42;25.20;72.50
26503;DHT22;14177;51.520;6.764;2022-10-18T12:43:27;25.60;71.40
26503;DHT22;14177;51.520;6.764;2022-10-18T12:46:00;25.70;70.20
26503;DHT22;14177;51.520;6.764;2022-10-18T12:48:41;25.80;69.40
26503;DHT22;14177;51.520;6.764;2022-10-18T12:51:17;25.50;68.90
26503;DHT22;14177;51.520;6.764;2022-10-18T12:54:08;24.80;71.50
26503;DHT22;14177;51.520;6.764;2022-10-18T12:57:21;24.80;73.90
26503;DHT22;14177;51.520;6.764;2022-10-18T12:59:49;24.70;73.50
26503;DHT22;14177;51.520;6.764;2022-10-18T13:02:23;25.00;72.50
26503;DHT22;14177;51.520;6.764;2022-10-18T13:04:52;25.00;69.70
26503;DHT22;14177;51.520;6.764;2022-10-18T13:07:34;24.90;72.10
26503;DHT22;14177;51.520;6.764;2022-10-18T13:10:33;25.20;70.50
26503;DHT22;14177;51.520;6.764;2022-10-18T13:27:02;25.60;65.00
26503;DHT22;14177;51.520;6.764;2022-10-18T13:30:44;25.30;65.50
26503;DHT22;14177;51.520;6.764;2022-10-18T13:33:36;25.40;66.40
26503;DHT22;14177;51.520;6.764;2022-10-18T14:00:17;24.40;62.80
26503;DHT22;14177;51.520;6.764;2022-10-18T14:06:23;24.40;65.50
26503;DHT22;14177;51.520;6.764;2022-10-18T14:09:27;24.80;63.90
26503;DHT22;14177;51.520;6.764;2022-10-18T14:15:25;25.10;60.40
26503;DHT22;14177;51.520;6.764;2022-10-18T14:24:20;25.10;55.90
26503;DHT22;14177;51.520;6.764;2022-10-18T14:27:09;24.90;57.80
26503;DHT22;14177;51.520;6.764;2022-10-18T14:29:42;24.90;57.60
26503;DHT22;14177;51.520;6.764;2022-10-18T14:32:27;24.70;57.80
26503;DHT22;14177;51.520;6.764;2022-10-18T14:34:57;24.70;58.90
26503;DHT22;14177;51.520;6.764;2022-10-18T14:37:46;24.80;58.10
26503;DHT22;14177;51.520;6.764;2022-10-18T14:43:13;24.70;56.10
26503;DHT22;14177;51.520;6.764;2022-10-18T14:45:41;24.40;59.00
26503;DHT22;14177;51.520;6.764;2022-10-18T14:48:16;24.40;59.40
26503;DHT22;14177;51.520;6.764;2022-10-18T14:50:54;24.30;58.60
26503;DHT22;14177;51.520;6.764;2022-10-18T14:53:28;24.10;58.70
26503;DHT22;14177;51.520;6.764;2022-10-18T14:56:01;24.00;59.70
26503;DHT22;14177;51.520;6.764;2022-10-18T14:58:35;24.00;59.20
26503;DHT22;14177;51.520;6.764;2022-10-18T15:01:04;24.00;58.10
26503;DHT22;14177;51.520;6.764;2022-10-18T15:03:33;24.00;57.60
26503;DHT22;14177;51.520;6.764;2022-10-18T15:06:03;24.00;57.60
26503;DHT22;14177;51.520;6.764;2022-10-18T15:08:41;23.90;57.40
26503;DHT22;14177;51.520;6.764;2022-10-18T15:11:12;23.70;58.50
26503;DHT22;14177;51.520;6.764;2022-10-18T15:13:56;23.60;58.10
26503;DHT22;14177;51.520;6.764;2022-10-18T15:16:38;23.60;59.60
26503;DHT22;14177;51.520;6.764;2022-10-18T15:21:54;23.40;59.80
26503;DHT22;14177;51.520;6.764;2022-10-18T15:24:43;23.40;60.20
26503;DHT22;14177;51.520;6.764;2022-10-18T15:27:16;23.30;61.20
26503;DHT22;14177;51.520;6.764;2022-10-18T15:39:28;23.10;62.00
26503;DHT22;14177;51.520;6.764;2022-10-18T16:05:00;21.30;64.60
26503;DHT22;14177;51.520;6.764;2022-10-18T16:07:29;20.80;66.40
26503;DHT22;14177;51.520;6.764;2022-10-18T16:09:57;20.40;67.20
26503;DHT22;14177;51.520;6.764;2022-10-18T16:12:24;20.20;68.90
26503;DHT22;14177;51.520;6.764;2022-10-18T16:14:51;19.90;70.20
26503;DHT22;14177;51.520;6.764;2022-10-18T16:17:18;19.70;71.90
26503;DHT22;14177;51.520;6.764;2022-10-18T16:19:45;19.50;73.10
26503;DHT22;14177;51.520;6.764;2022-10-18T16:22:12;19.30;74.20
26503;DHT22;14177;51.520;6.764;2022-10-18T16:24:44;19.10;75.70
26503;DHT22;14177;51.520;6.764;2022-10-18T16:27:11;18.90;77.30
26503;DHT22;14177;51.520;6.764;2022-10-18T16:29:38;18.80;78.20
26503;DHT22;14177;51.520;6.764;2022-10-18T16:32:07;18.50;79.50
26503;DHT22;14177;51.520;6.764;2022-10-18T16:34:34;18.40;80.70
26503;DHT22;14177;51.520;6.764;2022-10-18T16:37:01;18.20;81.70
26503;DHT22;14177;51.520;6.764;2022-10-18T16:39:29;18.00;82.50
26503;DHT22;14177;51.520;6.764;2022-10-18T16:42:00;17.80;83.30
26503;DHT22;14177;51.520;6.764;2022-10-18T16:44:27;17.60;84.40
26503;DHT22;14177;51.520;6.764;2022-10-18T16:46:54;17.40;85.40
26503;DHT22;14177;51.520;6.764;2022-10-18T16:49:24;17.20;86.40
26503;DHT22;14177;51.520;6.764;2022-10-18T16:51:52;17.00;87.20
26503;DHT22;14177;51.520;6.764;2022-10-18T16:54:20;16.90;88.20
26503;DHT22;14177;51.520;6.764;2022-10-18T16:56:47;16.70;88.80
26503;DHT22;14177;51.520;6.764;2022-10-18T16:59:22;16.60;89.80
26503;DHT22;14177;51.520;6.764;2022-10-18T17:01:52;16.40;90.20
26503;DHT22;14177;51.520;6.764;2022-10-18T17:04:19;16.30;90.60
26503;DHT22;14177;51.520;6.764;2022-10-18T17:06:46;16.10;90.90
26503;DHT22;14177;51.520;6.764;2022-10-18T17:09:15;16.00;91.10
26503;DHT22;14177;51.520;6.764;2022-10-18T17:11:42;15.90;91.30
26503;DHT22;14177;51.520;6.764;2022-10-18T17:14:09;15.90;91.60
26503;DHT22;14177;51.520;6.764;2022-10-18T17:16:36;15.80;91.90
26503;DHT22;14177;51.520;6.764;2022-10-18T17:19:06;15.70;92.00
26503;DHT22;14177;51.520;6.764;2022-10-18T17:21:36;15.50;92.20
26503;DHT22;14177;51.520;6.764;2022-10-18T17:24:03;15.50;92.50
26503;DHT22;14177;51.520;6.764;2022-10-18T17:26:32;15.30;92.80
26503;DHT22;14177;51.520;6.764;2022-10-18T17:29:02;15.30;93.10
26503;DHT22;14177;51.520;6.764;2022-10-18T17:31:32;15.20;93.20
26503;DHT22;14177;51.520;6.764;2022-10-18T17:33:59;15.10;93.20
26503;DHT22;14177;51.520;6.764;2022-10-18T17:36:29;15.10;93.40
26503;DHT22;14177;51.520;6.764;2022-10-18T17:38:57;15.00;93.70
26503;DHT22;14177;51.520;6.764;2022-10-18T17:41:24;14.90;93.80
26503;DHT22;14177;51.520;6.764;2022-10-18T17:43:51;14.80;94.00
26503;DHT22;14177;51.520;6.764;2022-10-18T17:46:18;14.80;94.20
26503;DHT22;14177;51.520;6.764;2022-10-18T17:48:46;14.70;94.30
26503;DHT22;14177;51.520;6.764;2022-10-18T17:51:15;14.60;94.50
26503;DHT22;14177;51.520;6.764;2022-10-18T17:53:43;14.50;94.70
26503;DHT22;14177;51.520;6.764;2022-10-18T17:56:11;14.50;94.90
26503;DHT22;14177;51.520;6.764;2022-10-18T17:58:40;14.40;94.80
26503;DHT22;14177;51.520;6.764;2022-10-18T18:01:17;14.30;94.90
26503;DHT22;14177;51.520;6.764;2022-10-18T18:03:46;14.30;95.00
26503;DHT22;14177;51.520;6.764;2022-10-18T18:06:20;14.20;95.20
26503;DHT22;14177;51.520;6.764;2022-10-18T18:08:57;14.10;95.30
26503;DHT22;14177;51.520;6.764;2022-10-18T18:11:27;14.00;95.50
26503;DHT22;14177;51.520;6.764;2022-10-18T18:13:55;14.00;95.70
26503;DHT22;14177;51.520;6.764;2022-10-18T18:16:24;13.90;95.60
26503;DHT22;14177;51.520;6.764;2022-10-18T18:18:56;13.90;95.80
26503;DHT22;14177;51.520;6.764;2022-10-18T18:21:25;13.80;96.00
26503;DHT22;14177;51.520;6.764;2022-10-18T18:23:54;13.80;96.10
26503;DHT22;14177;51.520;6.764;2022-10-18T18:26:23;13.70;96.20
26503;DHT22;14177;51.520;6.764;2022-10-18T18:28:55;13.60;96.20
26503;DHT22;14177;51.520;6.764;2022-10-18T18:31:24;13.60;96.40
26503;DHT22;14177;51.520;6.764;2022-10-18T18:33:57;13.50;96.40
26503;DHT22;14177;51.520;6.764;2022-10-18T18:36:26;13.40;96.50
26503;DHT22;14177;51.520;6.764;2022-10-18T18:38:55;13.40;96.60
26503;DHT22;14177;51.520;6.764;2022-10-18T18:41:26;13.40;96.60
26503;DHT22;14177;51.520;6.764;2022-10-18T18:44:02;13.30;96.70
26503;DHT22;14177;51.520;6.764;2022-10-18T18:46:35;13.20;96.90
26503;DHT22;14177;51.520;6.764;2022-10-18T18:49:06;13.10;97.10
26503;DHT22;14177;51.520;6.764;2022-10-18T18:51:36;13.10;97.10
26503;DHT22;14177;51.520;6.764;2022-10-18T18:54:13;13.10;97.10
26503;DHT22;14177;51.520;6.764;2022-10-18T18:56:50;13.00;97.30
26503;DHT22;14177;51.520;6.764;2022-10-18T18:59:22;13.00;97.40
26503;DHT22;14177;51.520;6.764;2022-10-18T19:02:09;13.00;97.30
26503;DHT22;14177;51.520;6.764;2022-10-18T19:04:44;12.90;97.40
26503;DHT22;14177;51.520;6.764;2022-10-18T19:07:14;12.90;97.50
26503;DHT22;14177;51.520;6.764;2022-10-18T19:09:46;12.90;97.40
26503;DHT22;14177;51.520;6.764;2022-10-18T19:12:26;12.80;97.30
26503;DHT22;14177;51.520;6.764;2022-10-18T19:14:55;12.80;97.30
26503;DHT22;14177;51.520;6.764;2022-10-18T19:17:28;12.70;97.30
26503;DHT22;14177;51.520;6.764;2022-10-18T19:19:59;12.70;97.50
26503;DHT22;14177;51.520;6.764;2022-10-18T19:22:32;12.60;97.60
26503;DHT22;14177;51.520;6.764;2022-10-18T19:25:05;12.60;97.50
26503;DHT22;14177;51.520;6.764;2022-10-18T19:27:44;12.50;97.60
26503;DHT22;14177;51.520;6.764;2022-10-18T19:30:21;12.50;97.60
26503;DHT22;14177;51.520;6.764;2022-10-18T19:32:51;12.50;97.60
26503;DHT22;14177;51.520;6.764;2022-10-18T19:35:32;12.40;97.60
26503;DHT22;14177;51.520;6.764;2022-10-18T19:38:03;12.40;97.50
26503;DHT22;14177;51.520;6.764;2022-10-18T19:40:31;12.40;97.40
26503;DHT22;14177;51.520;6.764;2022-10-18T19:43:05;12.30;97.40
26503;DHT22;14177;51.520;6.764;2022-10-18T19:45:32;12.30;97.40
26503;DHT22;14177;51.520;6.764;2022-10-18T19:48:00;12.30;97.40
26503;DHT22;14177;51.520;6.764;2022-10-18T19:50:27;12.20;97.50
26503;DHT22;14177;51.520;6.764;2022-10-18T19:52:55;12.10;97.50
26503;DHT22;14177;51.520;6.764;2022-10-18T19:55:28;12.00;97.70
26503;DHT22;14177;51.520;6.764;2022-10-18T19:58:08;12.00;97.80
26503;DHT22;14177;51.520;6.764;2022-10-18T20:00:39;11.90;97.80
26503;DHT22;14177;51.520;6.764;2022-10-18T20:03:10;11.90;97.90
26503;DHT22;14177;51.520;6.764;2022-10-18T20:05:44;11.80;97.90
26503;DHT22;14177;51.520;6.764;2022-10-18T20:08:13;11.80;98.00
26503;DHT22;14177;51.520;6.764;2022-10-18T20:10:46;11.80;98.00
26503;DHT22;14177;51.520;6.764;2022-10-18T20:13:26;11.80;98.10
26503;DHT22;14177;51.520;6.764;2022-10-18T20:15:57;11.70;98.10
26503;DHT22;14177;51.520;6.764;2022-10-18T20:18:28;11.70;98.10
26503;DHT22;14177;51.520;6.764;2022-10-18T20:21:13;11.70;98.10
26503;DHT22;14177;51.520;6.764;2022-10-18T20:23:47;11.70;98.10
26503;DHT22;14177;51.520;6.764;2022-10-18T20:26:18;11.70;98.10
26503;DHT22;14177;51.520;6.764;2022-10-18T20:28:51;11.70;98.00
26503;DHT22;14177;51.520;6.764;2022-10-18T20:31:28;11.70;98.10
26503;DHT22;14177;51.520;6.764;2022-10-18T20:34:03;11.70;98.00
26503;DHT22;14177;51.520;6.764;2022-10-18T20:36:33;11.60;98.20
26503;DHT22;14177;51.520;6.764;2022-10-18T20:39:02;11.60;98.30
26503;DHT22;14177;51.520;6.764;2022-10-18T20:41:36;11.60;98.30
26503;DHT22;14177;51.520;6.764;2022-10-18T20:44:11;11.60;98.50
26503;DHT22;14177;51.520;6.764;2022-10-18T20:46:41;11.60;98.50
26503;DHT22;14177;51.520;6.764;2022-10-18T20:49:14;11.60;98.60
26503;DHT22;14177;51.520;6.764;2022-10-18T20:51:45;11.60;98.70
26503;DHT22;14177;51.520;6.764;2022-10-18T20:54:12;11.60;98.80
26503;DHT22;14177;51.520;6.764;2022-10-18T20:56:40;11.50;98.80
26503;DHT22;14177;51.520;6.764;2022-10-18T20:59:11;11.50;98.80
26503;DHT22;14177;51.520;6.764;2022-10-18T21:01:41;11.40;98.90
26503;DHT22;14177;51.520;6.764;2022-10-18T21:04:14;11.30;98.90
26503;DHT22;14177;51.520;6.764;2022-10-18T21:06:59;11.30;98.90
26503;DHT22;14177;51.520;6.764;2022-10-18T21:09:42;11.20;98.80
26503;DHT22;14177;51.520;6.764;2022-10-18T21:12:16;11.10;98.80
26503;DHT22;14177;51.520;6.764;2022-10-18T21:14:44;11.10;98.80
26503;DHT22;14177;51.520;6.764;2022-10-18T21:17:12;11.10;98.80
26503;DHT22;14177;51.520;6.764;2022-10-18T21:19:41;11.00;98.80
26503;DHT22;14177;51.520;6.764;2022-10-18T21:22:08;11.00;99.00
26503;DHT22;14177;51.520;6.764;2022-10-18T21:24:35;10.90;98.90
26503;DHT22;14177;51.520;6.764;2022-10-18T21:27:02;10.90;98.80
26503;DHT22;14177;51.520;6.764;2022-10-18T21:29:29;10.90;98.80
26503;DHT22;14177;51.520;6.764;2022-10-18T21:31:56;10.90;98.90
26503;DHT22;14177;51.520;6.764;2022-10-18T21:34:25;10.80;98.80
26503;DHT22;14177;51.520;6.764;2022-10-18T21:36:52;10.80;98.70
26503;DHT22;14177;51.520;6.764;2022-10-18T21:39:21;10.70;98.60
26503;DHT22;14177;51.520;6.764;2022-10-18T21:41:49;10.70;98.70
26503;DHT22;14177;51.520;6.764;2022-10-18T21:44:17;10.60;99.10
26503;DHT22;14177;51.520;6.764;2022-10-18T21:46:44;10.70;99.00
26503;DHT22;14177;51.520;6.764;2022-10-18T21:49:13;10.60;99.10
26503;DHT22;14177;51.520;6.764;2022-10-18T21:51:41;10.60;99.20
26503;DHT22;14177;51.520;6.764;2022-10-18T21:54:14;10.50;99.20
26503;DHT22;14177;51.520;6.764;2022-10-18T21:56:41;10.50;99.40
26503;DHT22;14177;51.520;6.764;2022-10-18T21:59:12;10.50;99.60
26503;DHT22;14177;51.520;6.764;2022-10-18T22:01:40;10.40;99.50
26503;DHT22;14177;51.520;6.764;2022-10-18T22:04:23;10.40;99.30
26503;DHT22;14177;51.520;6.764;2022-10-18T22:06:50;10.30;99.40
26503;DHT22;14177;51.520;6.764;2022-10-18T22:09:17;10.30;99.40
26503;DHT22;14177;51.520;6.764;2022-10-18T22:11:50;10.30;99.30
26503;DHT22;14177;51.520;6.764;2022-10-18T22:14:18;10.20;99.40
26503;DHT22;14177;51.520;6.764;2022-10-18T22:16:47;10.20;99.40
26503;DHT22;14177;51.520;6.764;2022-10-18T22:19:14;10.10;99.50
26503;DHT22;14177;51.520;6.764;2022-10-18T22:21:41;10.10;99.60
26503;DHT22;14177;51.520;6.764;2022-10-18T22:24:08;10.10;99.60
26503;DHT22;14177;51.520;6.764;2022-10-18T22:27:00;10.00;99.50
26503;DHT22;14177;51.520;6.764;2022-10-18T22:29:35;10.00;99.50
26503;DHT22;14177;51.520;6.764;2022-10-18T22:32:02;9.90;99.50
26503;DHT22;14177;51.520;6.764;2022-10-18T22:34:29;9.90;99.40
26503;DHT22;14177;51.520;6.764;2022-10-18T22:36:56;9.80;99.40
26503;DHT22;14177;51.520;6.764;2022-10-18T22:39:24;9.80;99.40
26503;DHT22;14177;51.520;6.764;2022-10-18T22:41:51;9.80;99.50
26503;DHT22;14177;51.520;6.764;2022-10-18T22:44:21;9.80;99.50
26503;DHT22;14177;51.520;6.764;2022-10-18T22:46:49;9.70;99.70
26503;DHT22;14177;51.520;6.764;2022-10-18T22:49:16;9.70;99.40
26503;DHT22;14177;51.520;6.764;2022-10-18T22:51:43;9.70;99.30
26503;DHT22;14177;51.520;6.764;2022-10-18T22:54:10;9.60;99.30
26503;DHT22;14177;51.520;6.764;2022-10-18T22:56:37;9.60;99.30
26503;DHT22;14177;51.520;6.764;2022-10-18T22:59:04;9.50;99.30
26503;DHT22;14177;51.520;6.764;2022-10-18T23:01:31;9.50;99.30
26503;DHT22;14177;51.520;6.764;2022-10-18T23:03:59;9.50;99.40
26503;DHT22;14177;51.520;6.764;2022-10-18T23:06:32;9.50;99.40
26503;DHT22;14177;51.520;6.764;2022-10-18T23:09:05;9.40;99.40
26503;DHT22;14177;51.520;6.764;2022-10-18T23:11:34;9.40;99.30
26503;DHT22;14177;51.520;6.764;2022-10-18T23:14:04;9.40;99.30
26503;DHT22;14177;51.520;6.764;2022-10-18T23:16:34;9.30;99.20
26503;DHT22;14177;51.520;6.764;2022-10-18T23:19:01;9.30;99.30
26503;DHT22;14177;51.520;6.764;2022-10-18T23:21:28;9.30;99.30
26503;DHT22;14177;51.520;6.764;2022-10-18T23:23:56;9.30;99.30
26503;DHT22;14177;51.520;6.764;2022-10-18T23:26:25;9.20;99.30
26503;DHT22;14177;51.520;6.764;2022-10-18T23:28:53;9.20;99.30
26503;DHT22;14177;51.520;6.764;2022-10-18T23:31:30;9.10;99.40
26503;DHT22;14177;51.520;6.764;2022-10-18T23:34:00;9.10;99.40
26503;DHT22;14177;51.520;6.764;2022-10-18T23:36:30;9.10;99.50
26503;DHT22;14177;51.520;6.764;2022-10-18T23:38:58;9.00;99.50
26503;DHT22;14177;51.520;6.764;2022-10-18T23:41:25;9.00;99.40
26503;DHT22;14177;51.520;6.764;2022-10-18T23:43:52;8.90;99.50
26503;DHT22;14177;51.520;6.764;2022-10-18T23:46:20;8.90;99.50
26503;DHT22;14177;51.520;6.764;2022-10-18T23:48:48;8.90;99.70